Latest Coastal Weather Observations for Cairns

IDQ60701

Issued at 2:05 pm EST Thursday 23 October 2014 (issued every 10 minutes, with the page automatically refreshed every 10 minutes)

About coastal observations | Map of coastal stations | Coastal observations for QLD | Marine services | Other Formats
Station Details ID: 031011 Name: CAIRNS AERO Lat: -16.87 Lon: 145.75 Height: 2.22 m
Data from the previous 72 hours. | See also: Recent months at Cairns
Date/Time
EST
Temp

°C
Wind Pressure Rain
since 9am
mm
Weather Cloud Vis
km
Sea
Height
m
Swell
Dir
 
Speed
knots
Gust
knots
hPa Trend Height
m
Period
s
Dir
23/02:00pm 29.3 ESE 21 27 1015.2 - 0.2 - Mostly clear 10 - - - -
23/01:30pm 28.4 ESE 20 27 1015.5 - 0.2 - Mostly clear 10 - - - -
23/01:00pm 29.4 ESE 22 27 1015.7 - 0.2 - Mostly clear 10 - - - -
23/12:30pm 29.4 ESE 22 29 1016.1 - 0.2 - Mostly clear 10 - - - -
23/12:00pm 29.2 ESE 22 28 1016.5 F 0.2 Fine Mostly clear 25 - - - -
23/11:30am 29.5 ESE 21 29 1017.1 - 0.2 - Mostly clear 10 - - - -
23/11:00am 28.5 ESE 21 27 1017.5 - 0.2 - Mostly clear 10 - - - -
23/10:30am 28.5 SE 21 26 1017.7 - 0.2 - Mostly clear 10 - - - -
23/10:00am 28.4 SE 19 25 1018.0 - 0.2 - Mostly clear 10 - - - -
23/09:30am 28.0 SE 19 26 1018.2 - 0.2 - Mostly clear 10 - - - -
23/09:00am 27.0 SSE 16 21 1018.2 F 0.0 Distant precip. Mostly clear 20 - - - -
23/08:30am 26.4 SSE 15 20 1018.3 - 0.0 - Mostly clear 10 - - - -
23/08:00am 24.5 SSE 13 18 1018.2 - 0.0 - Mostly clear 10 - - - -
23/07:30am 23.0 SSE 12 18 1018.0 - 0.0 - Mostly clear 10 - - - -
23/07:00am 22.7 SSE 9 14 1017.8 - 0.0 - Mostly clear 10 - - - -
23/06:30am 22.0 S 7 12 1017.4 - 0.0 - Mostly clear 10 - - - -
23/06:00am 21.1 S 7 10 1017.1 F 0.0 Distant precip. Mostly clear 20 - - - -
23/05:30am 20.8 SSE 8 12 1017.0 - 0.0 - Mostly clear 10 - - - -
23/05:00am 21.4 SSE 9 13 1016.7 - 0.0 Showers Mostly clear 9 - - - -
23/04:30am 21.5 SSE 8 12 1016.4 - 0.0 - Mostly clear 10 - - - -
23/04:00am 21.6 SSE 9 14 1016.4 - 0.0 - Mostly clear 10 - - - -
23/03:30am 21.8 S 9 14 1016.4 - 0.0 - Mostly clear 10 - - - -
23/03:00am 21.9 SSE 8 12 1016.5 - 0.0 - Mostly clear 10 - - - -
23/02:30am 21.6 SSE 8 12 1016.9 - 0.0 - Mostly clear 10 - - - -
23/02:00am 21.7 SSE 8 14 1017.1 - 0.0 - Mostly clear 10 - - - -
23/01:30am 21.8 SSE 10 15 1017.4 - 0.0 - Mostly clear 10 - - - -
23/01:00am 21.9 S 9 14 1017.8 - 0.0 - Mostly clear 10 - - - -
23/12:30am 21.9 S 7 11 1018.3 - 0.0 - Mostly clear 10 - - - -
23/12:00am 22.1 SSE 9 14 1018.6 - 0.0 - Cloudy 10 - - - -
 
Date/Time
EST
Temp

°C
Wind Pressure Rain
since 9am
mm
Weather Cloud Vis
km
Sea
Height
m
Swell
Dir
 
Speed
knots
Gust
knots
hPa Trend Height
m
Period
s
Dir
22/11:30pm 22.9 SSE 8 9 1018.9 - 0.0 - Mostly clear 10 - - - -
22/11:00pm 23.5 SE 15 18 1019.2 - 0.0 - Mostly clear 10 - - - -
22/10:30pm 22.8 SSE 9 13 1019.3 - 0.0 - Mostly clear 10 - - - -
22/10:00pm 22.9 SSE 8 13 1019.3 - 0.0 - Mostly clear 10 - - - -
22/09:30pm 23.3 SSE 11 15 1019.0 - 0.0 - Mostly clear 10 - - - -
22/09:00pm 23.4 SSE 10 16 1018.6 - 0.0 - Mostly cloudy 10 - - - -
22/08:30pm 23.4 SSE 11 15 1018.5 - 0.0 - Mostly clear 10 - - - -
22/08:00pm 23.3 SSE 11 15 1018.3 - 0.0 - Mostly clear 10 - - - -
22/07:30pm 23.6 SE 15 19 1018.0 - 0.0 - Mostly clear 10 - - - -
22/07:00pm 23.8 SE 15 19 1017.7 - 0.0 - Mostly clear 10 - - - -
22/06:30pm 24.1 SE 15 19 1017.4 - 0.0 - Mostly clear 10 - - - -
22/06:00pm 24.6 SE 17 20 1017.1 - 0.0 - Mostly clear 10 - - - -
22/05:30pm 25.2 SE 19 24 1017.0 - 0.0 - Partly cloudy 10 - - - -
22/05:00pm 25.6 SE 20 25 1016.7 - 0.0 - Partly cloudy 10 - - - -
22/04:30pm 26.5 SSE 21 26 1016.5 - 0.0 - Mostly clear 10 - - - -
22/04:00pm 27.6 SE 20 26 1016.3 - 0.0 - Mostly clear 10 - - - -
22/03:30pm 27.7 SE 23 28 1016.1 - 0.0 - Mostly clear 10 - - - -
22/03:00pm 27.9 SE 25 31 1016.0 R 0.0 Fine Mostly clear 25 - - - -
22/02:30pm 28.6 SE 25 30 1016.3 - 0.0 - Mostly clear 10 - - - -
22/02:00pm 28.8 SE 26 35 1016.4 - 0.0 - Mostly clear 10 - - - -
22/01:30pm 29.0 SE 24 32 1016.7 - 0.0 - Mostly clear 10 - - - -
22/01:00pm 28.6 SE 23 31 1017.3 - 0.0 - Mostly clear 10 - - - -
22/12:30pm 29.6 SE 22 32 1017.6 - 0.0 - Mostly clear 10 - - - -
22/12:00pm 29.1 SE 23 29 1017.9 F 0.0 Fine Mostly clear 25 - - - -
22/11:30am 28.9 SE 23 31 1018.4 - 0.0 - Mostly clear 10 - - - -
22/11:00am 29.1 SE 23 30 1018.6 - 0.0 - Mostly clear 10 - - - -
22/10:30am 28.3 SE 22 30 1018.9 - 0.0 - Mostly clear 10 - - - -
22/10:00am 27.6 SE 19 25 1019.3 - 0.0 - Mostly clear 10 - - - -
22/09:30am 27.0 SE 18 23 1019.4 - 0.0 - Mostly clear 10 - - - -
22/09:00am 26.4 SE 17 22 1019.3 R 0.4 Fine Partly cloudy 25 - - - -
22/08:30am 26.0 SSE 11 15 1019.2 - 0.4 - Partly cloudy 10 - - - -
22/08:00am 24.3 SSE 12 17 1019.0 - 0.4 - Partly cloudy 10 - - - -
22/07:30am 24.0 SSE 11 16 1018.7 - 0.4 - Mostly clear 10 - - - -
22/07:00am 21.9 SSE 9 12 1018.3 - 0.4 - Mostly clear 10 - - - -
22/06:30am 21.8 SSE 12 18 1017.9 - 0.4 - Mostly clear 10 - - - -
22/06:00am 21.9 SSE 9 13 1017.4 F 0.4 Distant precip. Mostly clear 25 - - - -
22/05:30am 20.4 SE 8 10 1017.2 - 0.4 - Mostly clear 10 - - - -
22/05:00am 21.6 SSE 10 16 1017.0 - 0.4 - Mostly clear 10 - - - -
22/04:30am 21.7 S 10 16 1016.9 - 0.4 - Mostly clear 10 - - - -
22/04:00am 21.6 S 10 15 1016.9 - 0.4 - Mostly clear 10 - - - -
22/03:30am 21.7 SSE 9 16 1017.0 - 0.4 - Mostly clear 10 - - - -
22/03:00am 21.5 S 9 15 1017.0 - 0.4 - Mostly clear 10 - - - -
22/02:30am 22.1 S 10 17 1017.2 - 0.4 - Mostly clear 10 - - - -
22/02:00am 21.8 SSE 10 14 1017.5 - 0.4 - Mostly clear 10 - - - -
22/01:30am 22.1 SSE 9 14 1018.1 - 0.4 - Mostly clear 10 - - - -
22/01:00am 22.3 S 8 12 1018.6 - 0.4 - Mostly clear 10 - - - -
22/12:30am 22.1 S 10 16 1019.1 - 0.4 - Mostly clear 10 - - - -
22/12:00am 22.3 S 9 16 1019.5 - 0.4 - Partly cloudy 10 - - - -
 
Date/Time
EST
Temp

°C
Wind Pressure Rain
since 9am
mm
Weather Cloud Vis
km
Sea
Height
m
Swell
Dir
 
Speed
knots
Gust
knots
hPa Trend Height
m
Period
s
Dir
21/11:30pm 22.2 S 11 18 1019.9 - 0.4 - Mostly clear 10 - - - -
21/11:00pm 21.9 S 10 16 1020.2 - 0.4 - Mostly clear 10 - - - -
21/10:30pm 22.0 S 11 16 1020.2 - 0.4 - Mostly clear 10 - - - -
21/10:00pm 22.7 S 11 17 1020.3 - 0.4 - Mostly clear 10 - - - -
21/09:30pm 22.9 S 10 15 1020.1 - 0.4 Showers Mostly clear 10 - - - -
21/09:00pm 22.5 S 9 14 1019.9 - 0.4 - Mostly cloudy 10 - - - -
21/08:30pm 22.6 S 9 14 1019.7 - 0.4 - Mostly clear 10 - - - -
21/08:00pm 22.5 S 10 15 1019.5 - 0.4 - Mostly clear 10 - - - -
21/07:30pm 22.4 S 11 18 1019.2 - 0.4 Showers Partly cloudy 10 - - - -
21/07:00pm 22.2 S 9 15 1018.9 - 0.4 - Partly cloudy 10 - - - -
21/06:30pm 22.3 S 12 17 1018.6 - 0.2 Showers Partly cloudy 10 - - - -
21/06:00pm 24.2 SSE 11 16 1018.0 - 0.2 - Cloudy 10 - - - -
21/05:30pm 24.6 SSE 14 20 1017.9 - 0.2 - Partly cloudy 10 - - - -
21/05:00pm 25.0 SSE 17 21 1017.6 - 0.2 - Partly cloudy 10 - - - -
21/04:30pm 25.8 SSE 17 23 1017.3 - 0.2 - Partly cloudy 10 - - - -
21/04:06pm 26.3 SE 17 27 1017.0 - 0.2 - Partly cloudy 10 - - - -
21/04:00pm 27.0 SE 18 26 1016.9 - 0.2 - Partly cloudy 10 - - - -
21/03:30pm 26.5 SE 18 24 1016.9 - 0.2 - Mostly clear 10 - - - -
21/03:00pm 26.9 SE 18 26 1016.9 R 0.2 Distant precip. Mostly cloudy 25 - - - -
21/02:30pm 27.3 SE 20 27 1017.1 - 0.2 - Mostly clear 10 - - - -
21/02:00pm 26.8 SE 19 26 1017.3 - 0.2 - Mostly clear 10 - - - -
21/01:30pm 28.1 SE 21 27 1017.6 - 0.2 - Mostly clear 10 - - - -
21/01:00pm 27.9 SE 21 25 1018.0 - 0.2 - Mostly clear 10 - - - -
21/12:30pm 28.5 ESE 19 24 1018.3 - 0.2 - Mostly clear 10 - - - -
21/12:00pm 27.8 ESE 20 25 1018.5 R 0.2 Distant precip. Mostly cloudy 25 - - - -
21/11:30am 28.5 ESE 19 25 1018.8 - 0.2 - Mostly clear 10 - - - -
21/11:00am 28.4 SE 17 21 1018.8 - 0.2 - Mostly clear 10 - - - -
21/10:30am 28.1 ESE 19 26 1019.0 - 0.2 - Mostly clear 10 - - - -
21/10:00am 27.3 ESE 19 24 1019.0 - 0.2 - Mostly clear 10 - - - -
21/09:46am 27.2 ESE 20 25 1019.2 - 0.2 - Mostly clear 10 - - - -
21/09:30am 25.4 SSE 13 16 1019.4 - 0.2 - Mostly clear 10 - - - -
21/09:00am 24.6 S 9 13 1019.2 S 4.4 Distant precip. Mostly cloudy 25 - - - -
21/08:30am 23.6 SSE 10 16 1019.1 - 4.4 - Mostly clear 10 - - - -
21/08:00am 23.1 S 9 14 1019.0 - 4.4 - Mostly clear 10 - - - -
21/07:30am 22.5 S 10 16 1018.6 - 4.4 - Mostly clear 10 - - - -
21/07:00am 22.2 SSE 10 17 1018.2 - 4.4 - Mostly clear 10 - - - -
21/06:30am 21.6 S 11 15 1017.8 - 4.4 - Mostly clear 10 - - - -
21/06:00am 21.1 S 9 16 1017.6 F 4.4 Distant precip. Mostly cloudy 20 - - - -
21/05:30am 21.1 S 8 15 1017.6 - 4.4 Showers Partly cloudy 10 - - - -
21/05:00am 21.2 SSE 8 13 1017.4 - 4.4 - Partly cloudy 10 - - - -
21/04:30am 20.7 SSE 6 9 1017.1 - 4.4 Showers Mostly clear 10 - - - -
21/04:00am 20.6 S 7 11 1017.2 - 4.4 - Mostly clear 10 - - - -
21/03:30am 20.2 S 8 13 1017.2 - 4.4 - Mostly clear 10 - - - -
21/03:00am 20.6 SSE 13 20 1017.2 - 4.0 - Cloudy 10 - - - -
21/02:30am 21.7 SSE 8 13 1017.2 - 3.6 - Mostly clear 10 - - - -
21/02:00am 21.9 S 9 15 1017.4 - 3.6 - Mostly clear 10 - - - -
21/01:30am 22.1 S 9 14 1017.8 - 3.6 - Mostly clear 10 - - - -
21/01:00am 22.1 S 10 16 1018.2 - 3.6 - Mostly clear 10 - - - -
21/12:30am 22.1 S 7 12 1018.6 - 3.6 - Mostly clear 10 - - - -
21/12:00am 22.4 S 8 13 1018.8 - 3.6 - Mostly cloudy 10 - - - -
 
Date/Time
EST
Temp

°C
Wind Pressure Rain
since 9am
mm
Weather Cloud Vis
km
Sea
Height
m
Swell
Dir
 
Speed
knots
Gust
knots
hPa Trend Height
m
Period
s
Dir
20/11:30pm 21.9 S 9 15 1019.1 - 3.6 - Mostly clear 10 - - - -
20/11:00pm 21.7 S 7 11 1019.5 - 3.6 - Mostly clear 10 - - - -
20/10:30pm 21.2 S 8 14 1019.4 - 3.6 - Mostly clear 10 - - - -
20/10:00pm 21.5 S 9 15 1019.5 - 3.6 - Mostly clear 10 - - - -
20/09:30pm 21.6 S 8 13 1019.5 - 3.6 - Mostly clear 10 - - - -
20/09:00pm 21.4 S 10 15 1019.3 - 3.2 - Cloudy 10 - - - -
20/08:30pm 23.4 SSE 11 15 1019.0 - 3.2 Showers Mostly clear 10 - - - -
20/08:00pm 23.7 SSE 10 16 1018.6 - 3.2 - Mostly clear 10 - - - -
20/07:30pm 23.7 SSE 9 13 1018.4 - 3.2 - Mostly clear 10 - - - -
20/07:00pm 23.6 SSE 10 15 1018.0 - 3.2 - Mostly clear 10 - - - -
20/06:30pm 24.1 SE 15 19 1017.7 - 3.2 - Mostly clear 10 - - - -
20/06:00pm 24.3 SE 15 20 1017.1 - 3.2 - Cloudy 10 - - - -
20/05:30pm 24.9 SE 16 20 1017.0 - 3.2 - Mostly clear 10 - - - -
20/05:00pm 25.3 SE 17 22 1016.5 - 3.2 - Mostly clear 10 - - - -
20/04:30pm 25.3 SE 17 21 1016.2 - 3.2 - Mostly clear 10 - - - -
20/04:00pm 27.5 SE 19 24 1016.0 - 3.2 - Mostly clear 10 - - - -
20/03:30pm 27.5 SE 19 24 1016.2 - 3.2 - Mostly clear 10 - - - -
20/03:00pm 27.2 SE 20 26 1016.3 F 3.2 Distant precip. Mostly clear 20 - - - -
20/02:30pm 27.5 SE 19 24 1016.6 - 3.2 - Mostly clear 10 - - - -

Other Formats:

Comma delimited format used in spreadsheet applications
http://www.bom.gov.au/fwo/IDQ60701/IDQ60701.94287.axf

JavaScript Object Notation format (JSON) in row-major order
http://www.bom.gov.au/fwo/IDQ60701/IDQ60701.94287.json